Terminal Aerodrome Forecast
Issued by NWS

Home | Current Version | Previous Version | Text Only | Print | Product List | Glossary On
Versions: 1 2 3 4 5 6 7 8 9 10 11 12 13
000
FTUS45 KGGW 240500
TAFSDY
TAF
KSDY 240520Z 2406/2506 26010KT P6SM SCT250
     FM241600 28019KT P6SM SCT080 SCT250
     FM250300 31006KT P6SM BKN080
      AMD LTD TO CLD VIS AND WIND=

USA.gov is the U.S. government's official web portal to all federal, state and local government web resources and services.